Time;durP1;ratioP1;P1;durP2;ratioP2;P2;SDS_P1;SDS_P2;PMS_P1;PMS_P2;Temp;Humidity;BMP_temperature;BMP_pressure;BME280_temperature;BME280_humidity;BME280_pressure;Samples;Min_cycle;Max_cycle;Signal;HPM_P1;HPM_P2
2023/11/08 00:01:52;;;;;;;4.03;0.80;;;9.60;99.90;;;;;;5022755;28;20086;-78
2023/11/08 00:04:23;;;;;;;7.43;1.07;;;9.60;99.90;;;;;;5021081;28;20039;-77
2023/11/08 00:06:48;;;;;;;5.27;0.90;;;9.60;99.90;;;;;;5018901;28;20045;-78
2023/11/08 00:09:17;;;;;;;2.77;0.67;;;9.60;99.90;;;;;;5020502;28;20033;-78
2023/11/08 00:11:50;;;;;;;4.30;1.20;;;9.60;99.90;;;;;;5013993;28;20017;-77
2023/11/08 00:14:18;;;;;;;2.10;0.60;;;9.50;99.90;;;;;;5017152;28;20069;-77
2023/11/08 00:16:43;;;;;;;5.47;0.83;;;9.60;99.90;;;;;;5016628;28;20038;-80
2023/11/08 00:19:11;;;;;;;2.17;0.93;;;9.50;99.90;;;;;;5012879;28;20062;-78
2023/11/08 00:21:37;;;;;;;4.37;0.67;;;9.60;99.90;;;;;;5006904;28;20021;-77
2023/11/08 00:24:08;;;;;;;4.27;0.77;;;9.60;99.90;;;;;;5015468;28;20018;-77
2023/11/08 00:26:39;;;;;;;5.73;0.93;;;9.60;99.90;;;;;;5012032;28;20030;-77
2023/11/08 00:29:09;;;;;;;3.87;0.60;;;9.50;99.90;;;;;;5012469;28;20031;-78
2023/11/08 00:31:35;;;;;;;6.07;0.73;;;9.60;99.90;;;;;;5008147;28;20123;-77
2023/11/08 00:34:06;;;;;;;5.63;0.80;;;9.50;99.90;;;;;;5007097;28;20031;-77
2023/11/08 00:36:32;;;;;;;3.33;0.73;;;9.70;99.90;;;;;;5008691;28;20019;-78
2023/11/08 00:39:00;;;;;;;1.60;0.73;;;9.70;99.90;;;;;;5009876;28;20093;-79
2023/11/08 00:41:26;;;;;;;4.80;0.73;;;9.60;99.90;;;;;;5008057;28;20026;-76
2023/11/08 00:43:56;;;;;;;5.30;0.80;;;9.70;99.90;;;;;;5009991;28;20031;-77
2023/11/08 00:46:23;;;;;;;2.30;0.50;;;9.70;99.90;;;;;;5009539;28;20026;-77
2023/11/08 00:48:48;;;;;;;5.03;0.50;;;9.70;99.90;;;;;;5007733;28;20101;-77
2023/11/08 00:51:14;;;;;;;2.93;0.60;;;9.70;99.90;;;;;;5009758;28;21130;-78
2023/11/08 00:53:40;;;;;;;2.53;1.20;;;9.60;99.90;;;;;;5009804;28;20210;-77
2023/11/08 00:56:06;;;;;;;2.50;0.53;;;9.60;99.90;;;;;;5008569;28;20057;-77
2023/11/08 00:58:34;;;;;;;3.83;1.00;;;9.60;99.90;;;;;;5006448;28;20022;-77
2023/11/08 01:01:02;;;;;;;3.20;0.50;;;9.70;99.90;;;;;;5007227;28;20027;-78
2023/11/08 01:03:28;;;;;;;3.70;0.50;;;9.50;99.90;;;;;;5008549;28;20038;-76
2023/11/08 01:05:54;;;;;;;2.13;0.57;;;9.60;99.90;;;;;;5008166;28;20039;-76
2023/11/08 01:08:37;;;;;;;3.97;0.83;;;9.70;99.90;;;;;;5006299;28;20022;-77
2023/11/08 01:11:05;;;;;;;4.13;0.50;;;9.70;99.90;;;;;;5009306;28;20023;-77
2023/11/08 01:13:36;;;;;;;2.87;0.70;;;9.60;99.90;;;;;;5009620;28;20027;-77
2023/11/08 01:16:05;;;;;;;4.60;0.80;;;9.60;99.90;;;;;;5007770;28;20046;-78
2023/11/08 01:18:34;;;;;;;2.20;0.60;;;9.60;99.90;;;;;;5010008;28;20011;-77
2023/11/08 01:21:00;;;;;;;2.37;0.90;;;9.70;99.90;;;;;;5009959;28;20089;-78
2023/11/08 01:23:30;;;;;;;4.97;0.80;;;9.60;99.90;;;;;;4992492;28;20113;-77
2023/11/08 01:25:56;;;;;;;3.03;0.93;;;9.70;99.90;;;;;;5008886;28;20049;-77
2023/11/08 01:28:21;;;;;;;1.97;0.67;;;9.60;99.90;;;;;;5008842;28;20082;-78
2023/11/08 01:30:56;;;;;;;10.27;1.00;;;9.70;99.90;;;;;;5012137;28;20038;-78
2023/11/08 01:33:21;;;;;;;3.37;0.60;;;9.60;99.90;;;;;;5023905;28;20018;-77
2023/11/08 01:35:47;;;;;;;2.10;0.40;;;9.80;99.90;;;;;;5009690;28;20037;-77
2023/11/08 01:38:13;;;;;;;7.47;0.80;;;9.60;99.90;;;;;;5009448;28;20094;-78
2023/11/08 01:40:46;;;;;;;2.50;0.80;;;9.50;99.90;;;;;;5009015;28;20049;-78
2023/11/08 01:43:41;;;;;;;3.40;0.60;;;9.50;99.90;;;;;;5009048;28;20065;-77
2023/11/08 01:46:14;;;;;;;3.83;0.53;;;9.50;99.90;;;;;;5009988;28;20030;-77
2023/11/08 01:48:41;;;;;;;3.27;0.60;;;9.50;99.90;;;;;;5008653;28;20015;-78
2023/11/08 01:51:08;;;;;;;2.63;0.63;;;9.50;99.90;;;;;;5010918;28;20085;-77
2023/11/08 01:53:39;;;;;;;6.07;0.93;;;9.40;99.90;;;;;;5009166;28;20030;-77
2023/11/08 01:56:14;;;;;;;3.13;0.57;;;9.40;99.90;;;;;;5007743;28;20466;-77
2023/11/08 01:58:41;;;;;;;3.30;0.77;;;9.40;99.90;;;;;;5008765;28;20014;-78
2023/11/08 02:01:11;;;;;;;3.47;0.80;;;9.40;99.90;;;;;;5010685;28;20026;-79
2023/11/08 02:03:41;;;;;;;3.63;0.93;;;9.50;99.90;;;;;;5006774;28;20082;-77
2023/11/08 02:06:08;;;;;;;2.60;0.77;;;9.50;99.90;;;;;;5006984;28;20022;-77
2023/11/08 02:08:34;;;;;;;2.90;0.60;;;9.40;99.90;;;;;;5009118;28;20050;-77
2023/11/08 02:11:03;;;;;;;2.27;0.57;;;9.50;99.90;;;;;;5019767;28;20019;-78
2023/11/08 02:13:33;;;;;;;5.77;1.10;;;9.60;99.90;;;;;;5011739;28;20252;-79
2023/11/08 02:16:00;;;;;;;2.73;0.50;;;9.60;99.90;;;;;;5012893;28;20043;-80
2023/11/08 02:18:26;;;;;;;4.20;1.03;;;9.50;99.90;;;;;;5011490;28;20086;-77
2023/11/08 02:20:52;;;;;;;6.80;1.13;;;9.60;99.90;;;;;;5014233;28;20062;-78
2023/11/08 02:23:18;;;;;;;2.47;0.90;;;9.60;99.90;;;;;;5010338;28;20018;-77
2023/11/08 02:25:45;;;;;;;1.53;0.60;;;9.50;99.90;;;;;;5013865;28;20019;-79
2023/11/08 02:28:13;;;;;;;3.10;1.03;;;9.70;99.90;;;;;;5012373;28;20026;-77
2023/11/08 02:30:41;;;;;;;8.07;0.90;;;9.60;99.90;;;;;;5013227;28;20076;-76
2023/11/08 02:33:11;;;;;;;3.97;1.00;;;9.50;99.90;;;;;;5012406;28;20041;-77
2023/11/08 02:35:44;;;;;;;3.30;0.87;;;9.70;99.90;;;;;;5011215;28;20037;-76
2023/11/08 02:38:11;;;;;;;6.43;0.83;;;9.70;99.90;;;;;;5010535;28;20034;-77
2023/11/08 02:40:42;;;;;;;6.03;1.10;;;9.60;99.90;;;;;;5013354;28;20026;-77
2023/11/08 02:43:12;;;;;;;2.23;0.50;;;9.60;99.90;;;;;;5013176;28;20029;-76
2023/11/08 02:45:44;;;;;;;3.80;0.90;;;9.60;99.90;;;;;;5010480;28;20066;-77
2023/11/08 02:48:12;;;;;;;2.63;0.63;;;9.70;99.90;;;;;;5014673;28;20026;-77
2023/11/08 02:50:41;;;;;;;1.70;0.40;;;9.60;99.90;;;;;;5009898;28;20090;-77
2023/11/08 02:53:18;;;;;;;3.13;0.60;;;9.60;99.90;;;;;;5009976;28;20019;-78
2023/11/08 02:55:45;;;;;;;4.93;0.67;;;9.60;99.90;;;;;;5010741;28;20019;-77
2023/11/08 02:58:13;;;;;;;4.47;1.03;;;9.70;99.90;;;;;;5010835;28;20042;-78
2023/11/08 03:00:39;;;;;;;8.00;0.90;;;9.70;99.90;;;;;;5012492;28;20050;-76
2023/11/08 03:03:05;;;;;;;4.53;0.77;;;9.70;99.90;;;;;;5008437;28;20018;-77
2023/11/08 03:05:35;;;;;;;4.63;0.63;;;9.70;99.90;;;;;;5012495;28;20096;-76
2023/11/08 03:08:06;;;;;;;3.73;0.63;;;9.70;99.90;;;;;;5010003;28;20090;-77
2023/11/08 03:10:40;;;;;;;4.33;0.70;;;9.70;99.90;;;;;;5012815;28;20054;-79
2023/11/08 03:13:14;;;;;;;1.77;0.80;;;9.60;99.90;;;;;;5011126;28;20026;-76
2023/11/08 03:15:40;;;;;;;3.33;0.57;;;9.70;99.90;;;;;;5009003;28;20030;-77
2023/11/08 03:18:06;;;;;;;2.27;0.87;;;9.60;99.90;;;;;;5010336;28;20053;-77
2023/11/08 03:20:38;;;;;;;4.33;1.13;;;9.80;99.90;;;;;;5011961;28;20039;-79
2023/11/08 03:23:04;;;;;;;7.18;0.95;;;9.70;99.90;;;;;;5010824;28;20463;-76
2023/11/08 03:25:47;;;;;;;;;;;;;;;;;;;;;
2023/11/08 03:28:12;;;;;;;5.68;0.80;;;9.50;99.90;;;;;;5009384;28;20035;-76
2023/11/08 03:30:39;;;;;;;5.00;0.83;;;9.60;99.90;;;;;;5009568;28;20219;-76
2023/11/08 03:33:06;;;;;;;4.07;0.80;;;9.60;99.90;;;;;;5006165;28;20029;-76
2023/11/08 03:35:32;;;;;;;2.23;0.77;;;9.50;99.90;;;;;;5012500;28;20033;-77
2023/11/08 03:37:57;;;;;;;4.30;0.90;;;9.50;99.90;;;;;;5011628;28;20062;-76
2023/11/08 03:40:23;;;;;;;4.50;0.70;;;9.50;99.90;;;;;;5010308;28;20030;-77
2023/11/08 03:42:51;;;;;;;3.07;0.83;;;9.40;99.90;;;;;;5012619;28;20022;-76
2023/11/08 03:45:19;;;;;;;4.33;0.70;;;9.40;99.90;;;;;;5012500;28;20031;-77
2023/11/08 03:47:47;;;;;;;6.83;1.00;;;9.40;99.90;;;;;;5012818;28;20019;-77
2023/11/08 03:50:15;;;;;;;4.47;0.93;;;9.30;99.90;;;;;;5014013;28;20038;-76
2023/11/08 03:52:41;;;;;;;7.70;1.30;;;9.30;99.90;;;;;;5009770;28;20041;-77
2023/11/08 03:55:08;;;;;;;6.40;0.97;;;9.30;99.90;;;;;;5009958;28;20018;-79
2023/11/08 03:57:36;;;;;;;8.13;1.23;;;9.20;99.90;;;;;;5008676;28;20024;-76
2023/11/08 04:00:05;;;;;;;3.17;0.60;;;9.20;99.90;;;;;;5008178;28;20022;-78
2023/11/08 04:02:33;;;;;;;4.50;0.70;;;9.10;99.90;;;;;;5012988;28;20041;-77
2023/11/08 04:05:02;;;;;;;6.90;1.20;;;9.10;99.90;;;;;;5011887;28;20041;-76
2023/11/08 04:07:28;;;;;;;5.17;1.80;;;9.00;99.90;;;;;;5009519;28;20026;-78
2023/11/08 04:09:57;;;;;;;4.57;0.80;;;9.00;99.90;;;;;;5009023;28;20026;-76
2023/11/08 04:12:23;;;;;;;4.07;0.87;;;9.00;99.90;;;;;;5009095;28;20015;-77
2023/11/08 04:14:49;;;;;;;3.23;1.10;;;9.00;99.90;;;;;;5007321;28;20049;-76
2023/11/08 04:17:17;;;;;;;5.87;0.60;;;8.90;99.90;;;;;;5010155;28;20053;-77
2023/11/08 04:19:45;;;;;;;5.40;0.90;;;8.90;99.90;;;;;;5012373;28;20047;-77
2023/11/08 04:22:17;;;;;;;6.17;1.33;;;9.00;99.90;;;;;;5009878;28;20015;-77
2023/11/08 04:24:44;;;;;;;6.47;1.13;;;8.90;99.90;;;;;;5010046;28;20042;-77
2023/11/08 04:27:12;;;;;;;2.90;0.77;;;9.00;99.90;;;;;;5007936;28;20019;-76
2023/11/08 04:29:41;;;;;;;3.93;1.53;;;8.90;99.90;;;;;;5008775;28;20034;-76
2023/11/08 04:32:07;;;;;;;4.80;1.00;;;9.00;99.90;;;;;;5022799;28;20007;-77
2023/11/08 04:34:33;;;;;;;6.80;0.80;;;8.90;99.90;;;;;;5009508;28;20026;-76
2023/11/08 04:37:09;;;;;;;6.57;1.40;;;8.90;99.90;;;;;;5008262;28;20056;-76
2023/11/08 04:39:40;;;;;;;4.50;1.23;;;8.90;99.90;;;;;;5007481;28;20258;-77
2023/11/08 04:42:06;;;;;;;4.03;1.10;;;8.90;99.90;;;;;;5010442;28;20050;-78
2023/11/08 04:44:38;;;;;;;3.77;1.10;;;8.90;99.90;;;;;;5012355;28;20011;-77
2023/11/08 04:47:04;;;;;;;7.33;1.50;;;8.80;99.90;;;;;;5019232;28;20026;-76
2023/11/08 04:49:35;;;;;;;4.07;0.77;;;8.80;99.90;;;;;;5011611;28;20130;-75
2023/11/08 04:52:06;;;;;;;2.70;1.07;;;8.80;99.90;;;;;;5017845;28;20034;-76
2023/11/08 04:54:32;;;;;;;3.13;0.83;;;8.70;99.90;;;;;;5016356;28;20029;-76
2023/11/08 04:56:58;;;;;;;6.57;1.37;;;8.70;99.90;;;;;;5015825;28;20015;-76
2023/11/08 04:59:25;;;;;;;5.27;1.43;;;8.60;99.90;;;;;;5016760;28;20026;-76
2023/11/08 05:01:51;;;;;;;4.60;1.00;;;8.60;99.90;;;;;;5025189;28;20023;-78
2023/11/08 05:04:17;;;;;;;6.87;1.40;;;8.60;99.90;;;;;;5015794;28;20025;-76
2023/11/08 05:06:45;;;;;;;5.63;0.93;;;8.60;99.90;;;;;;5021146;28;20018;-78
2023/11/08 05:09:15;;;;;;;4.63;0.73;;;8.40;99.90;;;;;;5018058;28;20022;-76
2023/11/08 05:11:45;;;;;;;2.87;0.97;;;8.50;99.90;;;;;;5018546;28;20009;-79
2023/11/08 05:14:11;;;;;;;4.77;1.17;;;8.40;99.90;;;;;;5026218;28;20018;-76
2023/11/08 05:16:37;;;;;;;3.67;0.80;;;8.50;99.90;;;;;;5018079;28;20042;-79
2023/11/08 05:19:05;;;;;;;3.10;0.63;;;8.40;99.90;;;;;;5018412;28;20086;-80
2023/11/08 05:21:31;;;;;;;6.80;1.27;;;8.30;99.90;;;;;;5027604;28;20115;-81
2023/11/08 05:23:56;;;;;;;3.10;0.80;;;8.30;99.90;;;;;;5029188;28;20029;-79
2023/11/08 05:26:22;;;;;;;3.33;0.67;;;8.20;99.90;;;;;;5017857;28;20018;-79
2023/11/08 05:28:48;;;;;;;2.10;0.57;;;8.20;99.90;;;;;;5025882;28;20021;-77
2023/11/08 05:31:24;;;;;;;2.33;0.60;;;8.20;99.90;;;;;;5026000;28;20022;-78
2023/11/08 05:33:50;;;;;;;2.30;0.80;;;8.20;99.90;;;;;;5022453;28;20030;-77
2023/11/08 05:36:16;;;;;;;2.73;0.60;;;8.20;99.90;;;;;;5005676;28;20038;-77
2023/11/08 05:38:47;;;;;;;3.10;0.90;;;8.10;99.90;;;;;;5025847;28;20029;-77
2023/11/08 05:41:18;;;;;;;7.67;1.10;;;8.20;99.90;;;;;;5025176;28;20039;-78
2023/11/08 05:43:48;;;;;;;3.03;0.90;;;8.10;99.90;;;;;;5020639;28;20027;-76
2023/11/08 05:46:18;;;;;;;6.10;0.90;;;8.20;99.90;;;;;;5026319;28;20011;-77
2023/11/08 05:48:45;;;;;;;3.80;1.00;;;8.20;99.90;;;;;;5019832;28;20034;-81
2023/11/08 05:51:10;;;;;;;6.47;0.80;;;8.30;99.90;;;;;;5021573;28;20082;-78
2023/11/08 05:53:44;;;;;;;8.67;1.30;;;8.10;99.90;;;;;;5028493;28;20018;-79
2023/11/08 05:56:20;;;;;;;;;;;;;;;;;;;;;
2023/11/08 05:58:46;;;;;;;2.73;0.80;;;8.30;99.90;;;;;;5022426;28;20034;-78
2023/11/08 06:01:15;;;;;;;2.73;0.63;;;8.30;99.90;;;;;;5009936;28;20038;-76
2023/11/08 06:03:46;;;;;;;5.83;0.80;;;8.40;99.90;;;;;;5020871;28;20014;-77
2023/11/08 06:06:12;;;;;;;1.40;0.57;;;8.30;99.90;;;;;;5028983;28;20073;-78
2023/11/08 06:08:38;;;;;;;6.70;0.83;;;8.40;99.90;;;;;;5029747;28;20049;-76
2023/11/08 06:11:07;;;;;;;3.20;0.93;;;8.30;99.90;;;;;;5015850;28;20010;-77
2023/11/08 06:13:37;;;;;;;4.07;0.90;;;8.40;99.90;;;;;;5020027;28;20017;-76
2023/11/08 06:16:06;;;;;;;4.03;1.37;;;8.40;99.90;;;;;;5019175;28;20023;-79
2023/11/08 06:18:32;;;;;;;2.97;0.73;;;8.40;99.90;;;;;;5018336;28;20019;-77
2023/11/08 06:20:57;;;;;;;3.97;0.83;;;8.40;99.90;;;;;;5011779;28;20040;-77
2023/11/08 06:23:23;;;;;;;3.50;1.07;;;8.40;99.90;;;;;;5014426;28;20042;-77
2023/11/08 06:25:51;;;;;;;4.80;1.40;;;8.50;99.90;;;;;;5011165;28;20026;-77
2023/11/08 06:28:19;;;;;;;5.23;0.90;;;8.40;99.90;;;;;;5011421;28;20122;-77
2023/11/08 06:30:44;;;;;;;8.37;1.47;;;8.50;99.90;;;;;;5011125;28;20023;-77
2023/11/08 06:33:10;;;;;;;4.63;1.13;;;8.50;99.90;;;;;;5012520;28;20014;-77
2023/11/08 06:35:40;;;;;;;4.67;1.50;;;8.50;99.90;;;;;;5013916;28;20065;-77
2023/11/08 06:38:06;;;;;;;3.73;1.00;;;8.50;99.90;;;;;;5011723;28;20018;-77
2023/11/08 06:40:32;;;;;;;5.53;1.23;;;8.50;99.90;;;;;;5013733;28;20054;-77
2023/11/08 06:43:08;;;;;;;4.80;1.10;;;8.50;99.90;;;;;;5007751;28;21110;-77
2023/11/08 06:45:36;;;;;;;2.97;1.60;;;8.50;99.90;;;;;;5009082;28;20037;-79
2023/11/08 06:48:01;;;;;;;6.60;1.90;;;8.60;99.90;;;;;;5008578;28;20050;-77
2023/11/08 06:50:35;;;;;;;6.10;1.27;;;8.60;99.90;;;;;;5008732;28;20056;-77
2023/11/08 06:53:02;;;;;;;11.87;1.57;;;8.60;99.90;;;;;;5012833;28;20023;-77
2023/11/08 06:55:32;;;;;;;4.40;1.47;;;8.60;99.90;;;;;;5011978;28;20034;-77
2023/11/08 06:58:01;;;;;;;3.17;1.13;;;8.60;99.90;;;;;;5009964;28;20014;-77
2023/11/08 07:00:29;;;;;;;3.63;1.00;;;8.60;99.90;;;;;;5007633;28;20073;-78
2023/11/08 07:02:55;;;;;;;4.83;1.20;;;8.50;99.90;;;;;;5010190;28;20031;-77
2023/11/08 07:05:23;;;;;;;3.93;1.00;;;8.60;99.90;;;;;;5010608;28;20029;-77
2023/11/08 07:07:53;;;;;;;5.90;1.20;;;8.70;99.90;;;;;;5009365;28;20045;-77
2023/11/08 07:10:50;;;;;;;7.70;1.33;;;8.60;99.90;;;;;;5011975;28;20035;-77
2023/11/08 07:13:23;;;;;;;3.97;1.13;;;8.60;99.90;;;;;;5009034;28;20278;-77
2023/11/08 07:15:51;;;;;;;5.83;1.10;;;8.70;99.90;;;;;;5011027;28;20039;-77
2023/11/08 07:18:17;;;;;;;4.83;1.27;;;8.60;99.90;;;;;;5011569;28;20011;-76
2023/11/08 07:20:45;;;;;;;5.23;1.33;;;8.70;99.90;;;;;;5012405;28;20022;-77
2023/11/08 07:23:13;;;;;;;5.47;1.43;;;8.80;99.90;;;;;;5014210;28;20014;-77
2023/11/08 07:25:44;;;;;;;5.43;1.47;;;9.00;99.90;;;;;;5009363;28;20239;-77
2023/11/08 07:28:12;;;;;;;4.67;1.00;;;8.90;99.90;;;;;;5011077;28;20023;-76
2023/11/08 07:30:40;;;;;;;7.27;1.40;;;8.90;99.90;;;;;;5012227;28;20075;-77
2023/11/08 07:33:07;;;;;;;8.23;1.60;;;9.00;99.90;;;;;;5031238;28;20015;-77
2023/11/08 07:35:36;;;;;;;6.97;1.57;;;9.10;99.90;;;;;;5010623;28;20025;-78
2023/11/08 07:38:04;;;;;;;2.63;0.87;;;9.10;99.90;;;;;;5010988;28;20026;-77
2023/11/08 07:40:33;;;;;;;4.57;0.90;;;9.20;99.90;;;;;;5010120;28;20053;-78
2023/11/08 07:43:01;;;;;;;5.53;1.43;;;9.10;99.90;;;;;;5008164;28;20022;-78
2023/11/08 07:45:27;;;;;;;2.23;0.80;;;9.10;99.90;;;;;;5009403;28;20052;-77
2023/11/08 07:47:52;;;;;;;4.50;1.30;;;9.30;99.90;;;;;;5011953;28;20022;-77
2023/11/08 07:50:21;;;;;;;7.90;1.40;;;9.30;99.90;;;;;;5008633;28;20026;-79
2023/11/08 07:52:49;;;;;;;4.53;0.90;;;9.40;99.90;;;;;;5008476;28;20057;-78
2023/11/08 07:55:20;;;;;;;4.00;0.90;;;9.30;99.90;;;;;;5012758;28;20018;-78
2023/11/08 07:57:45;;;;;;;3.13;0.60;;;9.50;99.90;;;;;;5009231;28;20050;-79
2023/11/08 08:00:16;;;;;;;3.37;1.10;;;9.50;99.90;;;;;;5006875;28;20029;-78
2023/11/08 08:02:45;;;;;;;3.63;0.97;;;9.40;99.90;;;;;;5012875;28;20033;-78
2023/11/08 08:05:12;;;;;;;10.50;1.30;;;9.50;99.90;;;;;;5007339;28;20479;-78
2023/11/08 08:07:48;;;;;;;3.37;0.63;;;9.60;99.90;;;;;;5009193;28;20030;-78
2023/11/08 08:10:21;;;;;;;2.63;0.70;;;9.50;99.90;;;;;;5009470;28;20034;-78
2023/11/08 08:12:48;;;;;;;7.50;1.10;;;9.50;99.90;;;;;;5008495;28;20041;-80
2023/11/08 08:15:23;;;;;;;3.73;1.00;;;9.50;99.90;;;;;;5008968;28;20031;-80
2023/11/08 08:17:52;;;;;;;6.00;0.77;;;9.60;99.90;;;;;;5008178;28;20023;-79
2023/11/08 08:20:20;;;;;;;7.03;0.90;;;9.70;99.90;;;;;;5024522;28;20030;-78
2023/11/08 08:22:45;;;;;;;5.30;0.70;;;9.80;99.90;;;;;;5011479;28;20050;-77
2023/11/08 08:25:14;;;;;;;4.37;0.70;;;9.70;99.90;;;;;;5010892;28;20023;-78
2023/11/08 08:27:42;;;;;;;7.97;0.93;;;9.70;99.90;;;;;;5009002;28;20035;-78
2023/11/08 08:30:14;;;;;;;4.23;0.60;;;9.80;99.90;;;;;;5009621;28;20218;-80
2023/11/08 08:32:49;;;;;;;2.92;0.80;;;9.70;99.90;;;;;;5025193;28;20057;-79
2023/11/08 08:35:15;;;;;;;7.60;1.53;;;9.80;99.90;;;;;;5010233;28;20026;-78
2023/11/08 08:37:43;;;;;;;5.23;1.53;;;9.80;99.90;;;;;;5009379;28;20030;-79
2023/11/08 08:40:19;;;;;;;5.60;0.70;;;9.90;99.90;;;;;;5008755;28;20042;-79
2023/11/08 08:42:45;;;;;;;7.40;1.33;;;9.90;99.90;;;;;;5007983;28;20039;-77
2023/11/08 08:51:19;;;;;;;3.37;0.73;;;10.10;99.90;;;;;;5037155;23;20065;-77
2023/11/08 08:53:47;;;;;;;5.53;1.30;;;10.00;99.90;;;;;;5012941;28;20069;-78
2023/11/08 08:56:25;;;;;;;4.03;0.80;;;10.30;99.90;;;;;;5013887;28;20026;-80
2023/11/08 08:59:12;;;;;;;6.53;1.07;;;10.20;99.90;;;;;;5013862;28;20313;-77
2023/11/08 09:01:37;;;;;;;3.63;0.70;;;10.20;99.90;;;;;;5010583;28;20026;-78
2023/11/08 09:04:03;;;;;;;6.30;1.00;;;10.30;99.90;;;;;;5014268;28;20090;-77
2023/11/08 09:06:29;;;;;;;4.30;0.97;;;10.40;99.90;;;;;;5011789;28;20027;-79
2023/11/08 09:08:58;;;;;;;5.90;0.80;;;10.50;99.90;;;;;;5011745;28;20035;-78
2023/11/08 09:14:04;;;;;;;6.83;0.90;;;10.50;99.90;;;;;;5023718;23;20042;-78
2023/11/08 09:16:31;;;;;;;9.07;1.00;;;10.50;99.90;;;;;;5009959;28;20035;-79
2023/11/08 09:18:56;;;;;;;4.87;0.87;;;10.60;99.90;;;;;;5011363;28;20522;-77
2023/11/08 09:21:25;;;;;;;5.37;0.50;;;10.50;99.90;;;;;;5017261;28;20101;-78
2023/11/08 09:24:00;;;;;;;5.07;0.60;;;10.60;99.90;;;;;;5012760;28;20041;-78
2023/11/08 09:26:48;;;;;;;4.23;0.93;;;10.50;99.90;;;;;;5012565;28;20029;-78
2023/11/08 09:29:19;;;;;;;9.00;1.30;;;10.50;99.90;;;;;;5013654;28;20021;-80
2023/11/08 09:31:47;;;;;;;5.57;0.80;;;10.50;99.90;;;;;;5026820;28;20034;-77
2023/11/08 09:34:13;;;;;;;7.43;0.70;;;10.50;99.90;;;;;;5013030;28;20029;-77
2023/11/08 09:36:38;;;;;;;5.80;1.10;;;10.60;99.90;;;;;;5011209;28;20037;-79
2023/11/08 09:39:09;;;;;;;8.10;1.07;;;10.60;99.90;;;;;;5012224;28;20037;-79
2023/11/08 09:42:14;;;;;;;3.40;0.83;;;10.60;99.90;;;;;;5010723;28;20037;-79
2023/11/08 09:44:41;;;;;;;2.57;0.70;;;10.70;99.90;;;;;;5014531;28;20042;-78
2023/11/08 09:47:10;;;;;;;4.57;1.10;;;10.80;99.90;;;;;;5013304;28;20050;-77
2023/11/08 09:49:40;;;;;;;4.37;1.10;;;10.80;99.90;;;;;;5016088;28;20019;-77
2023/11/08 09:52:06;;;;;;;4.30;0.90;;;10.80;99.90;;;;;;5015550;28;20069;-76
2023/11/08 09:54:31;;;;;;;8.03;1.60;;;10.80;99.90;;;;;;5011652;28;20022;-78
2023/11/08 09:57:00;;;;;;;3.70;1.10;;;10.90;99.90;;;;;;5011750;28;20053;-80
2023/11/08 09:59:31;;;;;;;3.37;1.00;;;10.90;99.90;;;;;;5015233;23;20030;-76
2023/11/08 10:02:05;;;;;;;7.73;1.23;;;11.00;99.90;;;;;;5009708;28;20038;-79
2023/11/08 10:04:31;;;;;;;3.07;0.87;;;11.10;99.90;;;;;;5007122;28;20087;-78
2023/11/08 10:06:57;;;;;;;8.47;1.77;;;11.10;99.90;;;;;;4993890;28;20053;-78
2023/11/08 10:09:32;;;;;;;6.30;0.90;;;11.30;99.90;;;;;;4999110;28;20030;-77
2023/11/08 10:12:07;;;;;;;5.73;1.07;;;11.30;99.90;;;;;;4999182;28;20035;-79
2023/11/08 10:14:35;;;;;;;8.07;1.60;;;11.40;99.90;;;;;;4995866;28;20053;-77
2023/11/08 10:17:06;;;;;;;6.33;1.63;;;11.40;99.90;;;;;;4998804;28;20019;-77
2023/11/08 10:19:49;;;;;;;6.07;1.20;;;11.50;99.90;;;;;;5112409;23;20050;-77
2023/11/08 10:22:25;;;;;;;5.67;1.90;;;11.50;99.90;;;;;;5013576;28;20030;-78
2023/11/08 10:24:57;;;;;;;8.60;1.33;;;11.50;99.90;;;;;;5013980;28;20070;-78
2023/11/08 10:27:24;;;;;;;7.40;1.13;;;11.60;99.90;;;;;;5013240;28;20019;-78
2023/11/08 10:29:50;;;;;;;8.90;1.57;;;11.60;99.90;;;;;;5028944;28;20018;-78
2023/11/08 10:32:26;;;;;;;7.40;1.50;;;11.60;99.90;;;;;;5028601;28;20032;-78
2023/11/08 10:35:10;;;;;;;5.57;1.03;;;11.60;99.90;;;;;;5031253;28;20038;-78
2023/11/08 10:37:36;;;;;;;7.23;1.17;;;11.70;99.90;;;;;;5015660;28;20021;-79
2023/11/08 10:40:13;;;;;;;5.60;1.07;;;11.70;99.90;;;;;;5014341;28;20144;-78
2023/11/08 10:42:53;;;;;;;;;;;;;;;;;;;;;
2023/11/08 10:45:20;;;;;;;3.60;1.50;;;11.80;99.90;;;;;;5014623;28;20021;-78
2023/11/08 12:02:31;;;;;;;3.97;1.23;;;12.40;99.90;;;;;;5768031;23;19930;-77
2023/11/08 12:05:01;;;;;;;6.00;1.03;;;12.40;99.90;;;;;;4993333;28;20012;-77
2023/11/08 12:07:27;;;;;;;3.60;0.73;;;12.50;99.90;;;;;;4989665;28;20006;-77
2023/11/08 12:09:53;;;;;;;3.17;0.80;;;12.50;99.90;;;;;;4999968;28;20023;-78
2023/11/08 12:12:43;;;;;;;5.23;1.53;;;12.60;99.90;;;;;;4995012;28;20014;-78
2023/11/08 12:15:23;;;;;;;7.50;1.40;;;12.60;99.90;;;;;;4980867;28;20019;-78
2023/11/08 12:17:57;;;;;;;4.27;1.13;;;12.60;99.90;;;;;;5044338;22;20102;-78
2023/11/08 12:20:29;;;;;;;4.30;0.80;;;12.60;99.90;;;;;;5007898;28;20042;-78
2023/11/08 12:22:55;;;;;;;3.67;0.82;;;12.80;99.90;;;;;;5009023;28;20041;-78
2023/11/08 12:25:23;;;;;;;3.27;0.83;;;12.90;99.90;;;;;;5009631;28;20030;-77
2023/11/08 12:27:52;;;;;;;5.53;1.30;;;12.90;99.90;;;;;;5009230;28;20019;-77
2023/11/08 12:30:18;;;;;;;5.53;0.90;;;13.00;99.90;;;;;;5011673;28;20018;-77
2023/11/08 12:32:44;;;;;;;4.03;1.10;;;13.00;99.90;;;;;;5006649;28;20034;-78
2023/11/08 12:35:14;;;;;;;5.53;1.53;;;13.10;99.90;;;;;;5008663;28;20023;-77
2023/11/08 12:37:45;;;;;;;6.60;1.00;;;13.20;99.90;;;;;;5007587;28;20023;-77
2023/11/08 12:40:18;;;;;;;4.50;0.70;;;13.20;99.90;;;;;;5011247;28;20046;-77
2023/11/08 12:42:47;;;;;;;3.67;0.80;;;13.00;99.90;;;;;;5023366;28;20114;-78
2023/11/08 12:45:33;;;;;;;2.87;1.10;;;12.90;99.90;;;;;;5002533;28;20027;-78
2023/11/08 12:48:04;;;;;;;3.60;1.10;;;13.00;99.90;;;;;;5012502;28;20060;-78
2023/11/08 12:50:31;;;;;;;6.50;0.90;;;12.80;99.90;;;;;;5009177;28;20030;-78
2023/11/08 12:53:00;;;;;;;5.50;0.90;;;12.70;99.90;;;;;;5008135;28;20090;-77
2023/11/08 12:55:42;;;;;;;7.37;0.80;;;12.80;99.90;;;;;;5009561;28;20022;-78
2023/11/08 12:58:29;;;;;;;3.00;0.77;;;12.80;99.90;;;;;;5007377;28;20116;-78
2023/11/08 13:01:03;;;;;;;4.90;0.90;;;12.90;99.90;;;;;;5007535;28;20027;-78
2023/11/08 13:03:42;;;;;;;5.43;1.27;;;12.70;99.90;;;;;;5009054;28;20022;-78
2023/11/08 13:06:18;;;;;;;3.83;0.90;;;12.70;99.90;;;;;;5004107;28;20026;-78
2023/11/08 13:09:09;;;;;;;5.77;1.30;;;12.70;99.90;;;;;;5005888;28;21366;-78
2023/11/08 13:11:35;;;;;;;4.63;1.03;;;12.70;99.90;;;;;;5003256;28;20056;-77
2023/11/08 13:14:09;;;;;;;2.50;0.70;;;12.70;99.90;;;;;;5006904;28;20034;-78
2023/11/08 13:45:45;;;;;;;5.17;0.77;;;12.10;99.90;;;;;;5059355;23;20042;-78
2023/11/08 13:49:07;;;;;;;2.47;0.70;;;12.10;99.90;;;;;;5025093;28;20069;-77
2023/11/08 13:51:38;;;;;;;5.30;1.03;;;12.10;99.90;;;;;;5119122;23;20137;-78
2023/11/08 13:54:04;;;;;;;5.43;0.90;;;12.00;99.90;;;;;;5011011;28;20038;-77
2023/11/08 13:56:33;;;;;;;4.17;1.10;;;12.00;99.90;;;;;;5010335;28;20011;-78
2023/11/08 13:59:04;;;;;;;2.47;0.60;;;12.00;99.90;;;;;;5011159;28;20010;-78
2023/11/08 14:01:37;;;;;;;1.60;0.70;;;12.00;99.90;;;;;;5008555;28;20043;-77
2023/11/08 14:04:12;;;;;;;5.00;1.00;;;12.00;99.90;;;;;;5009312;28;20015;-78
2023/11/08 14:06:41;;;;;;;2.67;0.83;;;12.00;99.90;;;;;;5011555;28;20061;-78
2023/11/08 14:09:12;;;;;;;3.77;0.93;;;12.00;99.90;;;;;;5010917;28;20027;-78
2023/11/08 14:11:37;;;;;;;3.67;1.13;;;12.00;99.90;;;;;;5015618;28;20030;-77
2023/11/08 14:14:08;;;;;;;3.23;0.87;;;12.00;99.90;;;;;;5016615;28;20046;-78
2023/11/08 14:16:36;;;;;;;3.50;0.97;;;11.90;99.90;;;;;;5013923;28;20034;-78
2023/11/08 14:19:05;;;;;;;1.53;0.37;;;11.90;99.90;;;;;;5013081;28;20065;-77
2023/11/08 14:21:33;;;;;;;3.20;0.70;;;11.90;99.90;;;;;;5011505;28;20090;-79
2023/11/08 14:24:05;;;;;;;2.33;0.57;;;11.80;99.90;;;;;;5015109;28;20052;-78
2023/11/08 14:26:32;;;;;;;2.13;0.87;;;11.90;99.90;;;;;;5014985;28;20018;-78
2023/11/08 14:29:00;;;;;;;3.30;1.10;;;11.90;99.90;;;;;;5013951;28;20081;-77
2023/11/08 14:31:29;;;;;;;6.33;0.70;;;11.90;99.90;;;;;;5012175;28;20033;-78
2023/11/08 14:34:01;;;;;;;2.63;0.60;;;11.80;99.90;;;;;;5014164;28;20067;-77
2023/11/08 14:36:27;;;;;;;;;;;11.90;99.90;;;;;;5014392;28;20120;-78
2023/11/08 14:38:53;;;;;;;6.43;0.70;;;11.90;99.90;;;;;;5012163;28;19933;-78
2023/11/08 14:41:27;;;;;;;3.10;0.50;;;11.70;99.90;;;;;;5013564;28;20049;-78
2023/11/08 14:43:57;;;;;;;2.37;0.67;;;11.80;99.90;;;;;;5016164;28;20026;-78
2023/11/08 14:46:25;;;;;;;10.23;0.97;;;11.80;99.90;;;;;;5016381;28;20061;-78
2023/11/08 14:48:51;;;;;;;3.23;0.60;;;11.70;99.90;;;;;;5015571;28;20030;-78
2023/11/08 14:51:19;;;;;;;5.60;0.90;;;11.60;99.90;;;;;;5015850;28;20104;-78
2023/11/08 14:53:47;;;;;;;3.90;0.70;;;11.70;99.90;;;;;;5016907;28;20032;-79
2023/11/08 14:56:15;;;;;;;3.63;1.00;;;11.60;99.90;;;;;;5015445;28;20030;-79
2023/11/08 14:58:54;;;;;;;2.50;0.70;;;11.60;99.90;;;;;;5015681;28;20025;-79
2023/11/08 15:01:22;;;;;;;4.00;0.60;;;11.60;99.90;;;;;;5030373;28;20026;-79
2023/11/08 15:03:52;;;;;;;10.43;1.10;;;11.60;99.90;;;;;;5015834;28;20015;-77